Statsraad Lehmkuhl — LDRG — position and weather

sailwx.info

Track history (hours):
 
Tides and Currents Weather Stations Pressure Air Temp Water Temp Dewpoint Dewpoint Depression Visibility Wind Speed Wind Dir Waves Ship Positions

Statsraad Lehmkuhl (Norway)

Ship's website: http://www.lehmkuhl.no/eng/index.cfm

Last reported at 2019-Jun-16 00:30 UTC. Time now 2019-Jun-16 00:34 UTC.
Position N 60°24' E 005°19'.

Length 85 m; draft 5.5 m.

Type: Sailing vessel. MMSI: 258113000.

Date/timePositionNaut miles runAvg speedWind from/ knotsBaromVisibWave heightAir tempDewpointWater temp
2019-Jun-16 00:30N 60°24' E 005°19'0 0.0
2019-Jun-16 00:00N 60°24' E 005°19'0 0.0
2019-Jun-15 23:30N 60°24' E 005°19'0 0.0
2019-Jun-15 23:00N 60°24' E 005°19'0 0.0
2019-Jun-15 22:30N 60°24' E 005°19'0 0.0
2019-Jun-15 22:00N 60°24' E 005°19'0 0.0
2019-Jun-15 21:30N 60°24' E 005°19'0 0.0
2019-Jun-15 21:00N 60°24' E 005°19'0 0.0
2019-Jun-15 20:30N 60°24' E 005°19'0 0.0
2019-Jun-15 20:00N 60°24' E 005°19'0 0.5
2019-Jun-15 19:30N 60°24' E 005°19'2 3.8
2019-Jun-15 19:00N 60°24' E 005°15'2 4.2
2019-Jun-15 18:30N 60°23' E 005°11'3 6.4
2019-Jun-15 18:00N 60°25' E 005°06'2 3.0
2019-Jun-15 17:29N 60°24' E 005°09'2 4.5
2019-Jun-15 17:00N 60°24' E 005°13'3 5.4
2019-Jun-15 16:30N 60°26' E 005°16'2 3.4
2019-Jun-15 16:00N 60°24' E 005°18'1 1.6
2019-Jun-15 15:30N 60°24' E 005°19'0 0.0
2019-Jun-15 15:00N 60°24' E 005°19'0 0.0
2019-Jun-15 14:30N 60°24' E 005°19'0 0.0
2019-Jun-15 14:00N 60°24' E 005°19'0 0.0
2019-Jun-15 13:30N 60°24' E 005°19'0 0.0
2019-Jun-15 13:00N 60°24' E 005°19'0 0.0
2019-Jun-15 12:30N 60°24' E 005°19'0 0.0
2019-Jun-15 12:00N 60°24' E 005°19'0 0.0
2019-Jun-15 11:30N 60°24' E 005°19'0 0.0
2019-Jun-15 11:00N 60°24' E 005°19'0 0.0
2019-Jun-15 10:30N 60°24' E 005°19'0 0.0
2019-Jun-15 10:00N 60°24' E 005°19'0 0.0
2019-Jun-15 09:30N 60°24' E 005°19'0 0.0
2019-Jun-15 09:00N 60°24' E 005°19'0 0.0
2019-Jun-15 08:30N 60°24' E 005°19'0 0.0
2019-Jun-15 08:00N 60°24' E 005°19'0 0.0
2019-Jun-15 07:30N 60°24' E 005°19'0 0.0
2019-Jun-15 07:00N 60°24' E 005°19'0 0.0
2019-Jun-15 06:30N 60°24' E 005°19'0 0.0
2019-Jun-15 06:00N 60°24' E 005°19'0 0.0
2019-Jun-15 05:30N 60°24' E 005°19'0 0.0
2019-Jun-15 05:00N 60°24' E 005°19'0 0.0
2019-Jun-15 04:30N 60°24' E 005°19'0 0.0
2019-Jun-15 03:59N 60°24' E 005°19'0 0.0
2019-Jun-15 03:30N 60°24' E 005°19'0 0.0
2019-Jun-15 03:00N 60°24' E 005°19'0 0.0
2019-Jun-15 02:29N 60°24' E 005°19'0 0.0
2019-Jun-15 02:00N 60°24' E 005°19'0 0.0
2019-Jun-15 01:30N 60°24' E 005°19'0 0.0
2019-Jun-15 01:00N 60°24' E 005°19'0 0.0
2019-Jun-15 00:30N 60°24' E 005°19'0 0.0
2019-Jun-15 00:00N 60°24' E 005°19'0 0.0
2019-Jun-14 23:30N 60°24' E 005°19'0 0.0
2019-Jun-14 23:00N 60°24' E 005°19'0 0.0
2019-Jun-14 22:30N 60°24' E 005°19'0 0.0
2019-Jun-14 22:00N 60°24' E 005°19'0 0.0
2019-Jun-14 21:30N 60°24' E 005°19'0 0.0
2019-Jun-14 20:59N 60°24' E 005°19'0 0.0
2019-Jun-14 20:30N 60°24' E 005°19'0 0.0
2019-Jun-14 20:00N 60°24' E 005°19'0 0.9
2019-Jun-14 19:30N 60°24' E 005°18'2 4.5
2019-Jun-14 19:00N 60°24' E 005°14'2 4.4
2019-Jun-14 18:29N 60°23' E 005°09'2 5.0
2019-Jun-14 18:00N 60°25' E 005°06'3 5.1
2019-Jun-14 17:30N 60°23' E 005°10'3 5.1
2019-Jun-14 17:00N 60°24' E 005°15'2 3.6
2019-Jun-14 16:30N 60°26' E 005°17'2 3.8
2019-Jun-14 16:00N 60°24' E 005°18'0 0.9
2019-Jun-14 15:29N 60°24' E 005°19'0 0.0
2019-Jun-14 14:59N 60°24' E 005°19'0 0.0
2019-Jun-14 14:29N 60°24' E 005°19'0 0.0
2019-Jun-14 14:00N 60°24' E 005°19'0 0.0
2019-Jun-14 13:30N 60°24' E 005°19'0 0.0
2019-Jun-14 13:00N 60°24' E 005°19'0 0.0
2019-Jun-14 12:28N 60°24' E 005°19'0 0.0
2019-Jun-14 11:58N 60°24' E 005°19'0 0.0
2019-Jun-14 11:28N 60°24' E 005°19'0 0.0
2019-Jun-14 10:59N 60°24' E 005°19'0 0.0
2019-Jun-14 10:29N 60°24' E 005°19'0 0.0
2019-Jun-14 09:59N 60°24' E 005°19'0 0.0
2019-Jun-14 09:27N 60°24' E 005°19'0 0.0
2019-Jun-14 09:00N 60°24' E 005°19'0 0.0
2019-Jun-14 08:30N 60°24' E 005°19'0 0.0
2019-Jun-14 07:55N 60°24' E 005°19'0 0.0
2019-Jun-14 07:28N 60°24' E 005°19'0 0.0
2019-Jun-14 06:58N 60°24' E 005°19'0 0.0
2019-Jun-14 06:29N 60°24' E 005°19'0 0.0
2019-Jun-14 05:59N 60°24' E 005°19'0 0.0
2019-Jun-14 05:29N 60°24' E 005°19'0 0.0
2019-Jun-14 05:00N 60°24' E 005°19'0 0.0
2019-Jun-14 04:30N 60°24' E 005°19'0 0.0
2019-Jun-14 04:00N 60°24' E 005°19'0 0.0
2019-Jun-14 03:28N 60°24' E 005°19'0 0.0
2019-Jun-14 02:58N 60°24' E 005°19'0 0.0
2019-Jun-14 02:28N 60°24' E 005°19'0 0.0
2019-Jun-14 01:59N 60°24' E 005°19'0 0.0
2019-Jun-14 01:29N 60°24' E 005°19'0 0.0
2019-Jun-14 00:59N 60°24' E 005°19'0 0.0
2019-Jun-14 00:30N 60°24' E 005°19'0 0.0
2019-Jun-14 00:00N 60°24' E 005°19'0 0.0
2019-Jun-13 23:30N 60°24' E 005°19'0 0.0
2019-Jun-13 22:58N 60°24' E 005°19'0 0.0
2019-Jun-13 22:28N 60°24' E 005°19'0 0.0
2019-Jun-13 21:58N 60°24' E 005°19'0 0.0
2019-Jun-13 21:29N 60°24' E 005°19'0 0.0
2019-Jun-13 20:59N 60°24' E 005°19'0 0.0
2019-Jun-13 20:29N 60°24' E 005°19'0 0.0
2019-Jun-13 19:58N 60°24' E 005°19'1 1.1
2019-Jun-13 19:30N 60°24' E 005°18'2 4.1
2019-Jun-13 19:00N 60°24' E 005°14'2 4.6
2019-Jun-13 18:30N 60°23' E 005°10'2 4.7
2019-Jun-13 18:00N 60°25' E 005°06'2 4.1
2019-Jun-13 17:30N 60°24' E 005°09'2 4.1
2019-Jun-13 16:58N 60°24' E 005°14'2 3.9
2019-Jun-13 16:30N 60°25' E 005°16'1 3.0
2019-Jun-13 16:00N 60°25' E 005°18'1 1.6
2019-Jun-13 15:30N 60°24' E 005°19'0 0.0
2019-Jun-13 15:00N 60°24' E 005°19'0 0.0
2019-Jun-13 14:30N 60°24' E 005°19'0 0.0
2019-Jun-13 13:58N 60°24' E 005°19'0 0.0
2019-Jun-13 13:28N 60°24' E 005°19'0 0.0
2019-Jun-13 12:58N 60°24' E 005°19'0 0.0
2019-Jun-13 12:29N 60°24' E 005°19'0 0.0
2019-Jun-13 11:59N 60°24' E 005°19'0 0.0
2019-Jun-13 11:29N 60°24' E 005°19'0 0.0
2019-Jun-13 10:57N 60°24' E 005°19'0 0.0
2019-Jun-13 10:30N 60°24' E 005°19'0 0.0
2019-Jun-13 10:00N 60°24' E 005°19'0 0.0
2019-Jun-13 09:28N 60°24' E 005°19'0 0.0
2019-Jun-13 08:58N 60°24' E 005°19'0 0.0
2019-Jun-13 08:28N 60°24' E 005°19'0 0.0
2019-Jun-13 07:59N 60°24' E 005°19'0 0.0
2019-Jun-13 07:29N 60°24' E 005°19'0 0.0
2019-Jun-13 06:59N 60°24' E 005°19'0 0.0
2019-Jun-13 06:30N 60°24' E 005°19'0 0.0
2019-Jun-13 06:00N 60°24' E 005°19'0 0.0
2019-Jun-13 05:30N 60°24' E 005°19'0 0.0
2019-Jun-13 04:58N 60°24' E 005°19'0 0.0
2019-Jun-13 04:28N 60°24' E 005°19'0 0.0
2019-Jun-13 03:58N 60°24' E 005°19'0 0.0
2019-Jun-13 03:29N 60°24' E 005°19'0 0.0
2019-Jun-13 02:59N 60°24' E 005°19'0 0.0
2019-Jun-13 02:29N 60°24' E 005°19'0 0.0
2019-Jun-13 02:00N 60°24' E 005°19'0 0.0
2019-Jun-13 01:30N 60°24' E 005°19'0 0.0
2019-Jun-13 01:00N 60°24' E 005°19'0 0.0
2019-Jun-13 00:28N 60°24' E 005°19'0 0.0
2019-Jun-12 23:55N 60°24' E 005°19'0 0.0
2019-Jun-12 23:28N 60°24' E 005°19'0 0.0
2019-Jun-12 22:59N 60°24' E 005°19'0 0.0
2019-Jun-12 22:29N 60°24' E 005°19'0 0.0
2019-Jun-12 21:59N 60°24' E 005°19'0 0.0
2019-Jun-12 21:30N 60°24' E 005°19'0 0.0
2019-Jun-12 21:00N 60°24' E 005°19'0 0.0
2019-Jun-12 20:30N 60°24' E 005°19'0 0.0
2019-Jun-12 19:59N 60°24' E 005°19'1 1.5
2019-Jun-12 19:29N 60°24' E 005°18'2 4.6
2019-Jun-12 19:00N 60°24' E 005°13'2 4.1
2019-Jun-12 18:30N 60°23' E 005°09'2 4.9
2019-Jun-12 18:00N 60°26' E 005°06'1 2.6
2019-Jun-12 17:30N 60°25' E 005°08'2 4.0
2019-Jun-12 17:00N 60°23' E 005°11'3 6.2
2019-Jun-12 16:30N 60°25' E 005°16'1 2.4
2019-Jun-12 16:00N 60°25' E 005°18'1 1.9
2019-Jun-12 15:29N 60°24' E 005°19'0 0.0
2019-Jun-12 15:00N 60°24' E 005°19'0 0.0
2019-Jun-12 14:30N 60°24' E 005°19'0 0.0
2019-Jun-12 14:00N 60°24' E 005°19'0 0.0
2019-Jun-12 13:28N 60°24' E 005°19'0 0.0
2019-Jun-12 12:58N 60°24' E 005°19'0 0.0
2019-Jun-12 12:28N 60°24' E 005°19'0 0.0
2019-Jun-12 11:59N 60°24' E 005°19'0 0.0
2019-Jun-12 11:29N 60°24' E 005°19'0 0.0
2019-Jun-12 10:59N 60°24' E 005°19'0 0.0
2019-Jun-12 10:30N 60°24' E 005°19'0 0.0
2019-Jun-12 10:00N 60°24' E 005°19'0 0.0
2019-Jun-12 09:30N 60°24' E 005°19'0 0.0
2019-Jun-12 08:58N 60°24' E 005°19'0 0.0
2019-Jun-12 08:28N 60°24' E 005°19'0 0.0
2019-Jun-12 07:58N 60°24' E 005°19'0 0.0
2019-Jun-12 07:29N 60°24' E 005°19'0 0.0
2019-Jun-12 06:56N 60°24' E 005°19'0 0.0
2019-Jun-12 06:29N 60°24' E 005°19'0 0.0
2019-Jun-12 06:00N 60°24' E 005°19'0 0.0
2019-Jun-12 05:30N 60°24' E 005°19'0 0.0
2019-Jun-12 05:00N 60°24' E 005°19'0 0.0
2019-Jun-12 04:28N 60°24' E 005°19'0 0.0
2019-Jun-12 03:58N 60°24' E 005°19'0 0.0
2019-Jun-12 03:28N 60°24' E 005°19'0 0.0
2019-Jun-12 02:59N 60°24' E 005°19'0 0.0
2019-Jun-12 02:29N 60°24' E 005°19'0 0.0
2019-Jun-12 01:30N 60°24' E 005°19'0 0.0
2019-Jun-12 01:00N 60°24' E 005°19'0 0.0
2019-Jun-12 00:30N 60°24' E 005°19'0 0.0
2019-Jun-11 23:58N 60°24' E 005°19'0 0.0
2019-Jun-11 23:28N 60°24' E 005°19'0 0.0
2019-Jun-11 22:58N 60°24' E 005°19'0 0.0
2019-Jun-11 22:29N 60°24' E 005°19'0 0.0
2019-Jun-11 21:59N 60°24' E 005°19'0 0.0
2019-Jun-11 21:29N 60°24' E 005°19'0 0.0
2019-Jun-11 21:00N 60°24' E 005°19'0 0.0
2019-Jun-11 20:30N 60°24' E 005°19'0 0.0
2019-Jun-11 20:00N 60°24' E 005°19'0 0.7
2019-Jun-11 19:30N 60°24' E 005°19'2 4.4
2019-Jun-11 19:00N 60°24' E 005°14'2 4.8
2019-Jun-11 18:30N 60°23' E 005°09'2 5.0
2019-Jun-11 18:00N 60°25' E 005°06'1 2.4
2019-Jun-11 17:30N 60°25' E 005°08'2 4.2
2019-Jun-11 17:00N 60°23' E 005°12'3 5.2
2019-Jun-11 16:30N 60°25' E 005°16'1 2.7
2019-Jun-11 16:00N 60°24' E 005°18'1 1.2
2019-Jun-11 15:26N 60°24' E 005°19'0 0.0
2019-Jun-11 14:59N 60°24' E 005°19'0 0.0
2019-Jun-11 14:29N 60°24' E 005°19'0 0.0
2019-Jun-11 13:57N 60°24' E 005°19'0 0.0
2019-Jun-11 13:30N 60°24' E 005°19'0 0.0
2019-Jun-11 13:00N 60°24' E 005°19'0 0.0
2019-Jun-11 12:28N 60°24' E 005°19'0 0.0
2019-Jun-11 11:58N 60°24' E 005°19'0 0.0
2019-Jun-11 11:28N 60°24' E 005°19'0 0.0
2019-Jun-11 10:56N 60°24' E 005°19'0 0.0
2019-Jun-11 10:29N 60°24' E 005°19'0 0.0
2019-Jun-11 09:59N 60°24' E 005°19'0 0.0
2019-Jun-11 09:30N 60°24' E 005°19'0 0.0
2019-Jun-11 09:00N 60°24' E 005°19'0 0.0
2019-Jun-11 08:30N 60°24' E 005°19'0 0.0
2019-Jun-11 07:58N 60°24' E 005°19'1 1.3
2019-Jun-11 07:30N 60°24' E 005°18'3 6.3
2019-Jun-11 07:00N 60°23' E 005°12'2 3.9
2019-Jun-11 06:30N 60°24' E 005°08'2 4.7
2019-Jun-11 06:00N 60°25' E 005°04'2 4.7
2019-Jun-11 05:30N 60°27' E 005°01'2 4.7
2019-Jun-11 05:00N 60°29' E 004°59'2 4.5
2019-Jun-11 04:31N 60°31' E 004°57'2 4.4
2019-Jun-11 04:00N 60°33' E 004°55'2 4.5
2019-Jun-11 03:31N 60°35' E 004°54'2 4.6
2019-Jun-11 03:01N 60°37' E 004°52'2 4.6
2019-Jun-11 02:30N 60°39' E 004°50'2 4.3
2019-Jun-11 02:01N 60°41' E 004°48'2 4.6
2019-Jun-11 01:30N 60°43' E 004°45'3 5.9
2019-Jun-11 01:00N 60°44' E 004°39'2 5.1
2019-Jun-11 00:31N 60°43' E 004°34'2 4.6
2019-Jun-11 00:00N 60°42' E 004°30'2 4.9
2019-Jun-10 23:30N 60°41' E 004°26'3 5.0
2019-Jun-10 23:00N 60°40' E 004°21'2 4.5
2019-Jun-10 22:31N 60°39' E 004°17'2 3.6
2019-Jun-10 22:00N 60°38' E 004°14'1 2.3
2019-Jun-10 21:30N 60°37' E 004°12'1 2.8
2019-Jun-10 21:00N 60°37' E 004°10'2 3.3
2019-Jun-10 20:30N 60°36' E 004°06'2 3.3
2019-Jun-10 20:00N 60°36' E 004°03'2 3.8
2019-Jun-10 19:30N 60°35' E 003°59'2 3.9
2019-Jun-10 19:00N 60°34' E 003°56'2 4.2
2019-Jun-10 18:30N 60°34' E 003°52'2 3.6
2019-Jun-10 18:00N 60°33' E 003°48'2 4.0
2019-Jun-10 17:30N 60°33' E 003°44'2 4.0
2019-Jun-10 17:01N 60°33' E 003°40'2 4.0
2019-Jun-10 16:30N 60°33' E 003°36'3 5.2
2019-Jun-10 16:00N 60°33' E 003°31'3 6.2
2019-Jun-10 15:30N 60°33' E 003°24'3 6.4
2019-Jun-10 15:00N 60°33' E 003°18'3 6.3
2019-Jun-10 14:30N 60°33' E 003°11'3 6.1
2019-Jun-10 14:00N 60°33' E 003°05'3 6.2
2019-Jun-10 13:30N 60°33' E 002°59'3 6.5
2019-Jun-10 13:00N 60°34' E 002°52'3 6.7
2019-Jun-10 12:30N 60°34' E 002°45'3 6.6
2019-Jun-10 12:00N 60°34' E 002°39'3 6.6
2019-Jun-10 11:30N 60°34' E 002°32'3 6.4
2019-Jun-10 10:59N 60°33' E 002°25'  
2019-Jun-07 22:15N 60°24' E 000°24'2 6.2
2019-Jun-07 21:56N 60°25' E 000°28'2 5.4
2019-Jun-07 21:29N 60°25' E 000°33'2 3.1
2019-Jun-07 20:57N 60°25' E 000°36'1 1.5
2019-Jun-07 20:29N 60°25' E 000°37'1 2.0
2019-Jun-07 19:59N 60°25' E 000°40'1 2.0
2019-Jun-07 19:27N 60°25' E 000°42'1 2.1
2019-Jun-07 18:57N 60°25' E 000°44'1 2.1
2019-Jun-07 18:29N 60°25' E 000°46'2 3.0
2019-Jun-07 17:47N 60°26' E 000°50'5 3.7
2019-Jun-07 16:26N 60°27' E 000°60'2 4.5
2019-Jun-07 16:00N 60°27' E 001°04'11 4.7
2019-Jun-07 13:34N 60°29' E 001°26'0 5.1
2019-Jun-07 13:30N 60°30' E 001°27'3 5.6
2019-Jun-07 13:00N 60°30' E 001°32'3 5.5
2019-Jun-07 12:30N 60°31' E 001°37'3 5.5
2019-Jun-07 12:00N 60°32' E 001°43'2 4.8
2019-Jun-07 11:30N 60°33' E 001°47'3 5.0
2019-Jun-07 11:00N 60°33' E 001°52'2 4.4
2019-Jun-07 10:29N 60°34' E 001°57'2 4.9
2019-Jun-07 09:59N 60°34' E 002°02'3 5.4
2019-Jun-07 09:30N 60°35' E 002°07'3 6.1
2019-Jun-07 08:59N 60°36' E 002°13'3 6.5
2019-Jun-07 08:29N 60°36' E 002°20'4 7.1
2019-Jun-07 07:55N 60°37' E 002°28'3 7.0
2019-Jun-07 07:29N 60°37' E 002°34'8 6.4
2019-Jun-07 06:15N 60°38' E 002°50'2 6.5
2019-Jun-07 05:59N 60°38' E 002°53'3 6.3
2019-Jun-07 05:30N 60°38' E 002°60'3 5.5
2019-Jun-07 04:59N 60°38' E 003°05'2 4.7
2019-Jun-07 04:29N 60°38' E 003°10'2 4.4
2019-Jun-07 03:59N 60°38' E 003°15'2 3.5
2019-Jun-07 03:30N 60°38' E 003°18'1 2.4
2019-Jun-07 03:00N 60°38' E 003°21'1 2.5
2019-Jun-07 02:30N 60°38' E 003°23'1 2.2
2019-Jun-07 01:59N 60°38' E 003°25'1 2.4
2019-Jun-07 01:30N 60°38' E 003°28'1 2.8
2019-Jun-07 00:59N 60°38' E 003°31'1 3.0
2019-Jun-07 00:30N 60°38' E 003°34'1 2.8
2019-Jun-07 00:00N 60°38' E 003°37'1 2.6
2019-Jun-06 23:29N 60°38' E 003°39'1 1.8
2019-Jun-06 23:00N 60°38' E 003°41'1 1.6
2019-Jun-06 22:30N 60°38' E 003°43'1 2.4
2019-Jun-06 21:59N 60°37' E 003°45'1 2.9
2019-Jun-06 21:30N 60°37' E 003°48'3 5.2
2019-Jun-06 21:00N 60°38' E 003°53'3 5.6
2019-Jun-06 20:30N 60°39' E 003°58'3 5.4
2019-Jun-06 20:00N 60°40' E 004°03'3 6.1
2019-Jun-06 19:30N 60°41' E 004°09'3 6.1
2019-Jun-06 19:00N 60°42' E 004°15'3 5.9
2019-Jun-06 18:30N 60°43' E 004°21'3 6.5
2019-Jun-06 17:58N 60°44' E 004°28'3 6.7
2019-Jun-06 17:30N 60°44' E 004°34'4 7.0
2019-Jun-06 16:59N 60°45' E 004°41'3 6.6
2019-Jun-06 16:30N 60°44' E 004°47'4 8.0
2019-Jun-06 16:00N 60°40' E 004°51'4 7.6
2019-Jun-06 15:30N 60°36' E 004°54'3 6.6
2019-Jun-06 15:00N 60°33' E 004°56'3 5.9
2019-Jun-06 14:30N 60°31' E 004°58'3 6.0
2019-Jun-06 14:00N 60°28' E 005°01'3 6.1
2019-Jun-06 13:30N 60°25' E 005°04'4 7.8
2019-Jun-06 13:00N 60°23' E 005°11'4 7.1
2019-Jun-06 12:30N 60°24' E 005°17'1 1.8
2019-Jun-06 11:57N 60°24' E 005°19'0 0.0
2019-Jun-06 11:30N 60°24' E 005°19'0 0.0
2019-Jun-06 11:00N 60°24' E 005°19'0 0.0
2019-Jun-06 10:28N 60°24' E 005°19'0 0.0
2019-Jun-06 09:58N 60°24' E 005°19'0 0.0
2019-Jun-06 09:28N 60°24' E 005°19'0 0.0
2019-Jun-06 08:59N 60°24' E 005°19'0 0.0
2019-Jun-06 08:29N 60°24' E 005°19'0 0.0
2019-Jun-06 07:59N 60°24' E 005°19'0 0.0
2019-Jun-06 07:30N 60°24' E 005°19'0 0.0
2019-Jun-06 07:00N 60°24' E 005°19'0 0.0
2019-Jun-06 06:30N 60°24' E 005°19'0 0.0
2019-Jun-06 05:58N 60°24' E 005°19'0 0.0
2019-Jun-06 05:28N 60°24' E 005°19'0 0.0
2019-Jun-06 04:58N 60°24' E 005°19'0 0.0
2019-Jun-06 04:29N 60°24' E 005°19'0 0.0
2019-Jun-06 03:59N 60°24' E 005°19'0 0.0
2019-Jun-06 03:29N 60°24' E 005°19'0 0.0
2019-Jun-06 03:00N 60°24' E 005°19'0 0.0
2019-Jun-06 02:30N 60°24' E 005°19'0 0.0
2019-Jun-06 02:00N 60°24' E 005°19'0 0.0
2019-Jun-06 01:28N 60°24' E 005°19'0 0.0
2019-Jun-06 00:55N 60°24' E 005°19'  
Track history (hours):
 
Tides and Currents Weather Stations Pressure Air Temp Water Temp Dewpoint Dewpoint Depression Visibility Wind Speed Wind Dir Waves Ship Positions

Statsraad Lehmkuhl (Norway)

Ship's website: http://www.lehmkuhl.no/eng/index.cfm

Last reported at 2019-Jun-16 00:30 UTC. Time now 2019-Jun-16 00:34 UTC.
Position N 60°24' E 005°19'.

Length 85 m; draft 5.5 m.

Type: Sailing vessel. MMSI: 258113000.

Date/timePositionNaut miles runAvg speedWind from/ knotsBaromVisibWave heightAir tempDewpointWater temp
2019-Jun-16 00:30N 60°24' E 005°19'0 0.0
2019-Jun-16 00:00N 60°24' E 005°19'0 0.0
2019-Jun-15 23:30N 60°24' E 005°19'0 0.0
2019-Jun-15 23:00N 60°24' E 005°19'0 0.0
2019-Jun-15 22:30N 60°24' E 005°19'0 0.0
2019-Jun-15 22:00N 60°24' E 005°19'0 0.0
2019-Jun-15 21:30N 60°24' E 005°19'0 0.0
2019-Jun-15 21:00N 60°24' E 005°19'0 0.0
2019-Jun-15 20:30N 60°24' E 005°19'0 0.0
2019-Jun-15 20:00N 60°24' E 005°19'0 0.5
2019-Jun-15 19:30N 60°24' E 005°19'2 3.8
2019-Jun-15 19:00N 60°24' E 005°15'2 4.2
2019-Jun-15 18:30N 60°23' E 005°11'3 6.4
2019-Jun-15 18:00N 60°25' E 005°06'2 3.0
2019-Jun-15 17:29N 60°24' E 005°09'2 4.5
2019-Jun-15 17:00N 60°24' E 005°13'3 5.4
2019-Jun-15 16:30N 60°26' E 005°16'2 3.4
2019-Jun-15 16:00N 60°24' E 005°18'1 1.6
2019-Jun-15 15:30N 60°24' E 005°19'0 0.0
2019-Jun-15 15:00N 60°24' E 005°19'0 0.0
2019-Jun-15 14:30N 60°24' E 005°19'0 0.0
2019-Jun-15 14:00N 60°24' E 005°19'0 0.0
2019-Jun-15 13:30N 60°24' E 005°19'0 0.0
2019-Jun-15 13:00N 60°24' E 005°19'0 0.0
2019-Jun-15 12:30N 60°24' E 005°19'0 0.0
2019-Jun-15 12:00N 60°24' E 005°19'0 0.0
2019-Jun-15 11:30N 60°24' E 005°19'0 0.0
2019-Jun-15 11:00N 60°24' E 005°19'0 0.0
2019-Jun-15 10:30N 60°24' E 005°19'0 0.0
2019-Jun-15 10:00N 60°24' E 005°19'0 0.0
2019-Jun-15 09:30N 60°24' E 005°19'0 0.0
2019-Jun-15 09:00N 60°24' E 005°19'0 0.0
2019-Jun-15 08:30N 60°24' E 005°19'0 0.0
2019-Jun-15 08:00N 60°24' E 005°19'0 0.0
2019-Jun-15 07:30N 60°24' E 005°19'0 0.0
2019-Jun-15 07:00N 60°24' E 005°19'0 0.0
2019-Jun-15 06:30N 60°24' E 005°19'0 0.0
2019-Jun-15 06:00N 60°24' E 005°19'0 0.0
2019-Jun-15 05:30N 60°24' E 005°19'0 0.0
2019-Jun-15 05:00N 60°24' E 005°19'0 0.0
2019-Jun-15 04:30N 60°24' E 005°19'0 0.0
2019-Jun-15 03:59N 60°24' E 005°19'0 0.0
2019-Jun-15 03:30N 60°24' E 005°19'0 0.0
2019-Jun-15 03:00N 60°24' E 005°19'0 0.0
2019-Jun-15 02:29N 60°24' E 005°19'0 0.0
2019-Jun-15 02:00N 60°24' E 005°19'0 0.0
2019-Jun-15 01:30N 60°24' E 005°19'0 0.0
2019-Jun-15 01:00N 60°24' E 005°19'0 0.0
2019-Jun-15 00:30N 60°24' E 005°19'0 0.0
2019-Jun-15 00:00N 60°24' E 005°19'0 0.0
2019-Jun-14 23:30N 60°24' E 005°19'0 0.0
2019-Jun-14 23:00N 60°24' E 005°19'0 0.0
2019-Jun-14 22:30N 60°24' E 005°19'0 0.0
2019-Jun-14 22:00N 60°24' E 005°19'0 0.0
2019-Jun-14 21:30N 60°24' E 005°19'0 0.0
2019-Jun-14 20:59N 60°24' E 005°19'0 0.0
2019-Jun-14 20:30N 60°24' E 005°19'0 0.0
2019-Jun-14 20:00N 60°24' E 005°19'0 0.9
2019-Jun-14 19:30N 60°24' E 005°18'2 4.5
2019-Jun-14 19:00N 60°24' E 005°14'2 4.4
2019-Jun-14 18:29N 60°23' E 005°09'2 5.0
2019-Jun-14 18:00N 60°25' E 005°06'3 5.1
2019-Jun-14 17:30N 60°23' E 005°10'3 5.1
2019-Jun-14 17:00N 60°24' E 005°15'2 3.6
2019-Jun-14 16:30N 60°26' E 005°17'2 3.8
2019-Jun-14 16:00N 60°24' E 005°18'0 0.9
2019-Jun-14 15:29N 60°24' E 005°19'0 0.0
2019-Jun-14 14:59N 60°24' E 005°19'0 0.0
2019-Jun-14 14:29N 60°24' E 005°19'0 0.0
2019-Jun-14 14:00N 60°24' E 005°19'0 0.0
2019-Jun-14 13:30N 60°24' E 005°19'0 0.0
2019-Jun-14 13:00N 60°24' E 005°19'0 0.0
2019-Jun-14 12:28N 60°24' E 005°19'0 0.0
2019-Jun-14 11:58N 60°24' E 005°19'0 0.0
2019-Jun-14 11:28N 60°24' E 005°19'0 0.0
2019-Jun-14 10:59N 60°24' E 005°19'0 0.0
2019-Jun-14 10:29N 60°24' E 005°19'0 0.0
2019-Jun-14 09:59N 60°24' E 005°19'0 0.0
2019-Jun-14 09:27N 60°24' E 005°19'0 0.0
2019-Jun-14 09:00N 60°24' E 005°19'0 0.0
2019-Jun-14 08:30N 60°24' E 005°19'0 0.0
2019-Jun-14 07:55N 60°24' E 005°19'0 0.0
2019-Jun-14 07:28N 60°24' E 005°19'0 0.0
2019-Jun-14 06:58N 60°24' E 005°19'0 0.0
2019-Jun-14 06:29N 60°24' E 005°19'0 0.0
2019-Jun-14 05:59N 60°24' E 005°19'0 0.0
2019-Jun-14 05:29N 60°24' E 005°19'0 0.0
2019-Jun-14 05:00N 60°24' E 005°19'0 0.0
2019-Jun-14 04:30N 60°24' E 005°19'0 0.0
2019-Jun-14 04:00N 60°24' E 005°19'0 0.0
2019-Jun-14 03:28N 60°24' E 005°19'0 0.0
2019-Jun-14 02:58N 60°24' E 005°19'0 0.0
2019-Jun-14 02:28N 60°24' E 005°19'0 0.0
2019-Jun-14 01:59N 60°24' E 005°19'0 0.0
2019-Jun-14 01:29N 60°24' E 005°19'0 0.0
2019-Jun-14 00:59N 60°24' E 005°19'0 0.0
2019-Jun-14 00:30N 60°24' E 005°19'0 0.0
2019-Jun-14 00:00N 60°24' E 005°19'0 0.0
2019-Jun-13 23:30N 60°24' E 005°19'0 0.0
2019-Jun-13 22:58N 60°24' E 005°19'0 0.0
2019-Jun-13 22:28N 60°24' E 005°19'0 0.0
2019-Jun-13 21:58N 60°24' E 005°19'0 0.0
2019-Jun-13 21:29N 60°24' E 005°19'0 0.0
2019-Jun-13 20:59N 60°24' E 005°19'0 0.0
2019-Jun-13 20:29N 60°24' E 005°19'0 0.0
2019-Jun-13 19:58N 60°24' E 005°19'1 1.1
2019-Jun-13 19:30N 60°24' E 005°18'2 4.1
2019-Jun-13 19:00N 60°24' E 005°14'2 4.6
2019-Jun-13 18:30N 60°23' E 005°10'2 4.7
2019-Jun-13 18:00N 60°25' E 005°06'2 4.1
2019-Jun-13 17:30N 60°24' E 005°09'2 4.1
2019-Jun-13 16:58N 60°24' E 005°14'2 3.9
2019-Jun-13 16:30N 60°25' E 005°16'1 3.0
2019-Jun-13 16:00N 60°25' E 005°18'1 1.6
2019-Jun-13 15:30N 60°24' E 005°19'0 0.0
2019-Jun-13 15:00N 60°24' E 005°19'0 0.0
2019-Jun-13 14:30N 60°24' E 005°19'0 0.0
2019-Jun-13 13:58N 60°24' E 005°19'0 0.0
2019-Jun-13 13:28N 60°24' E 005°19'0 0.0
2019-Jun-13 12:58N 60°24' E 005°19'0 0.0
2019-Jun-13 12:29N 60°24' E 005°19'0 0.0
2019-Jun-13 11:59N 60°24' E 005°19'0 0.0
2019-Jun-13 11:29N 60°24' E 005°19'0 0.0
2019-Jun-13 10:57N 60°24' E 005°19'0 0.0
2019-Jun-13 10:30N 60°24' E 005°19'0 0.0
2019-Jun-13 10:00N 60°24' E 005°19'0 0.0
2019-Jun-13 09:28N 60°24' E 005°19'0 0.0
2019-Jun-13 08:58N 60°24' E 005°19'0 0.0
2019-Jun-13 08:28N 60°24' E 005°19'0 0.0
2019-Jun-13 07:59N 60°24' E 005°19'0 0.0
2019-Jun-13 07:29N 60°24' E 005°19'0 0.0
2019-Jun-13 06:59N 60°24' E 005°19'0 0.0
2019-Jun-13 06:30N 60°24' E 005°19'0 0.0
2019-Jun-13 06:00N 60°24' E 005°19'0 0.0
2019-Jun-13 05:30N 60°24' E 005°19'0 0.0
2019-Jun-13 04:58N 60°24' E 005°19'0 0.0
2019-Jun-13 04:28N 60°24' E 005°19'0 0.0
2019-Jun-13 03:58N 60°24' E 005°19'0 0.0
2019-Jun-13 03:29N 60°24' E 005°19'0 0.0
2019-Jun-13 02:59N 60°24' E 005°19'0 0.0
2019-Jun-13 02:29N 60°24' E 005°19'0 0.0
2019-Jun-13 02:00N 60°24' E 005°19'0 0.0
2019-Jun-13 01:30N 60°24' E 005°19'0 0.0
2019-Jun-13 01:00N 60°24' E 005°19'0 0.0
2019-Jun-13 00:28N 60°24' E 005°19'0 0.0
2019-Jun-12 23:55N 60°24' E 005°19'0 0.0
2019-Jun-12 23:28N 60°24' E 005°19'0 0.0
2019-Jun-12 22:59N 60°24' E 005°19'0 0.0
2019-Jun-12 22:29N 60°24' E 005°19'0 0.0
2019-Jun-12 21:59N 60°24' E 005°19'0 0.0
2019-Jun-12 21:30N 60°24' E 005°19'0 0.0
2019-Jun-12 21:00N 60°24' E 005°19'0 0.0
2019-Jun-12 20:30N 60°24' E 005°19'0 0.0
2019-Jun-12 19:59N 60°24' E 005°19'1 1.5
2019-Jun-12 19:29N 60°24' E 005°18'2 4.6
2019-Jun-12 19:00N 60°24' E 005°13'2 4.1
2019-Jun-12 18:30N 60°23' E 005°09'2 4.9
2019-Jun-12 18:00N 60°26' E 005°06'1 2.6
2019-Jun-12 17:30N 60°25' E 005°08'2 4.0
2019-Jun-12 17:00N 60°23' E 005°11'3 6.2
2019-Jun-12 16:30N 60°25' E 005°16'1 2.4
2019-Jun-12 16:00N 60°25' E 005°18'1 1.9
2019-Jun-12 15:29N 60°24' E 005°19'0 0.0
2019-Jun-12 15:00N 60°24' E 005°19'0 0.0
2019-Jun-12 14:30N 60°24' E 005°19'0 0.0
2019-Jun-12 14:00N 60°24' E 005°19'0 0.0
2019-Jun-12 13:28N 60°24' E 005°19'0 0.0
2019-Jun-12 12:58N 60°24' E 005°19'0 0.0
2019-Jun-12 12:28N 60°24' E 005°19'0 0.0
2019-Jun-12 11:59N 60°24' E 005°19'0 0.0
2019-Jun-12 11:29N 60°24' E 005°19'0 0.0
2019-Jun-12 10:59N 60°24' E 005°19'0 0.0
2019-Jun-12 10:30N 60°24' E 005°19'0 0.0
2019-Jun-12 10:00N 60°24' E 005°19'0 0.0
2019-Jun-12 09:30N 60°24' E 005°19'0 0.0
2019-Jun-12 08:58N 60°24' E 005°19'0 0.0
2019-Jun-12 08:28N 60°24' E 005°19'0 0.0
2019-Jun-12 07:58N 60°24' E 005°19'0 0.0
2019-Jun-12 07:29N 60°24' E 005°19'0 0.0
2019-Jun-12 06:56N 60°24' E 005°19'0 0.0
2019-Jun-12 06:29N 60°24' E 005°19'0 0.0
2019-Jun-12 06:00N 60°24' E 005°19'0 0.0
2019-Jun-12 05:30N 60°24' E 005°19'0 0.0
2019-Jun-12 05:00N 60°24' E 005°19'0 0.0
2019-Jun-12 04:28N 60°24' E 005°19'0 0.0
2019-Jun-12 03:58N 60°24' E 005°19'0 0.0
2019-Jun-12 03:28N 60°24' E 005°19'0 0.0
2019-Jun-12 02:59N 60°24' E 005°19'0 0.0
2019-Jun-12 02:29N 60°24' E 005°19'0 0.0
2019-Jun-12 01:30N 60°24' E 005°19'0 0.0
2019-Jun-12 01:00N 60°24' E 005°19'0 0.0
2019-Jun-12 00:30N 60°24' E 005°19'0 0.0
2019-Jun-11 23:58N 60°24' E 005°19'0 0.0
2019-Jun-11 23:28N 60°24' E 005°19'0 0.0
2019-Jun-11 22:58N 60°24' E 005°19'0 0.0
2019-Jun-11 22:29N 60°24' E 005°19'0 0.0
2019-Jun-11 21:59N 60°24' E 005°19'0 0.0
2019-Jun-11 21:29N 60°24' E 005°19'0 0.0
2019-Jun-11 21:00N 60°24' E 005°19'0 0.0
2019-Jun-11 20:30N 60°24' E 005°19'0 0.0
2019-Jun-11 20:00N 60°24' E 005°19'0 0.7
2019-Jun-11 19:30N 60°24' E 005°19'2 4.4
2019-Jun-11 19:00N 60°24' E 005°14'2 4.8
2019-Jun-11 18:30N 60°23' E 005°09'2 5.0
2019-Jun-11 18:00N 60°25' E 005°06'1 2.4
2019-Jun-11 17:30N 60°25' E 005°08'2 4.2
2019-Jun-11 17:00N 60°23' E 005°12'3 5.2
2019-Jun-11 16:30N 60°25' E 005°16'1 2.7
2019-Jun-11 16:00N 60°24' E 005°18'1 1.2
2019-Jun-11 15:26N 60°24' E 005°19'0 0.0
2019-Jun-11 14:59N 60°24' E 005°19'0 0.0
2019-Jun-11 14:29N 60°24' E 005°19'0 0.0
2019-Jun-11 13:57N 60°24' E 005°19'0 0.0
2019-Jun-11 13:30N 60°24' E 005°19'0 0.0
2019-Jun-11 13:00N 60°24' E 005°19'0 0.0
2019-Jun-11 12:28N 60°24' E 005°19'0 0.0
2019-Jun-11 11:58N 60°24' E 005°19'0 0.0
2019-Jun-11 11:28N 60°24' E 005°19'0 0.0
2019-Jun-11 10:56N 60°24' E 005°19'0 0.0
2019-Jun-11 10:29N 60°24' E 005°19'0 0.0
2019-Jun-11 09:59N 60°24' E 005°19'0 0.0
2019-Jun-11 09:30N 60°24' E 005°19'0 0.0
2019-Jun-11 09:00N 60°24' E 005°19'0 0.0
2019-Jun-11 08:30N 60°24' E 005°19'0 0.0
2019-Jun-11 07:58N 60°24' E 005°19'1 1.3
2019-Jun-11 07:30N 60°24' E 005°18'3 6.3
2019-Jun-11 07:00N 60°23' E 005°12'2 3.9
2019-Jun-11 06:30N 60°24' E 005°08'2 4.7
2019-Jun-11 06:00N 60°25' E 005°04'2 4.7
2019-Jun-11 05:30N 60°27' E 005°01'2 4.7
2019-Jun-11 05:00N 60°29' E 004°59'2 4.5
2019-Jun-11 04:31N 60°31' E 004°57'2 4.4
2019-Jun-11 04:00N 60°33' E 004°55'2 4.5
2019-Jun-11 03:31N 60°35' E 004°54'2 4.6
2019-Jun-11 03:01N 60°37' E 004°52'2 4.6
2019-Jun-11 02:30N 60°39' E 004°50'2 4.3
2019-Jun-11 02:01N 60°41' E 004°48'2 4.6
2019-Jun-11 01:30N 60°43' E 004°45'3 5.9
2019-Jun-11 01:00N 60°44' E 004°39'2 5.1
2019-Jun-11 00:31N 60°43' E 004°34'2 4.6
2019-Jun-11 00:00N 60°42' E 004°30'2 4.9
2019-Jun-10 23:30N 60°41' E 004°26'3 5.0
2019-Jun-10 23:00N 60°40' E 004°21'2 4.5
2019-Jun-10 22:31N 60°39' E 004°17'2 3.6
2019-Jun-10 22:00N 60°38' E 004°14'1 2.3
2019-Jun-10 21:30N 60°37' E 004°12'1 2.8
2019-Jun-10 21:00N 60°37' E 004°10'2 3.3
2019-Jun-10 20:30N 60°36' E 004°06'2 3.3
2019-Jun-10 20:00N 60°36' E 004°03'2 3.8
2019-Jun-10 19:30N 60°35' E 003°59'2 3.9
2019-Jun-10 19:00N 60°34' E 003°56'2 4.2
2019-Jun-10 18:30N 60°34' E 003°52'2 3.6
2019-Jun-10 18:00N 60°33' E 003°48'2 4.0
2019-Jun-10 17:30N 60°33' E 003°44'2 4.0
2019-Jun-10 17:01N 60°33' E 003°40'2 4.0
2019-Jun-10 16:30N 60°33' E 003°36'3 5.2
2019-Jun-10 16:00N 60°33' E 003°31'3 6.2
2019-Jun-10 15:30N 60°33' E 003°24'3 6.4
2019-Jun-10 15:00N 60°33' E 003°18'3 6.3
2019-Jun-10 14:30N 60°33' E 003°11'3 6.1
2019-Jun-10 14:00N 60°33' E 003°05'3 6.2
2019-Jun-10 13:30N 60°33' E 002°59'3 6.5
2019-Jun-10 13:00N 60°34' E 002°52'3 6.7
2019-Jun-10 12:30N 60°34' E 002°45'3 6.6
2019-Jun-10 12:00N 60°34' E 002°39'3 6.6
2019-Jun-10 11:30N 60°34' E 002°32'3 6.4
2019-Jun-10 10:59N 60°33' E 002°25'  
2019-Jun-07 22:15N 60°24' E 000°24'2 6.2
2019-Jun-07 21:56N 60°25' E 000°28'2 5.4
2019-Jun-07 21:29N 60°25' E 000°33'2 3.1
2019-Jun-07 20:57N 60°25' E 000°36'1 1.5
2019-Jun-07 20:29N 60°25' E 000°37'1 2.0
2019-Jun-07 19:59N 60°25' E 000°40'1 2.0
2019-Jun-07 19:27N 60°25' E 000°42'1 2.1
2019-Jun-07 18:57N 60°25' E 000°44'1 2.1
2019-Jun-07 18:29N 60°25' E 000°46'2 3.0
2019-Jun-07 17:47N 60°26' E 000°50'5 3.7
2019-Jun-07 16:26N 60°27' E 000°60'2 4.5
2019-Jun-07 16:00N 60°27' E 001°04'11 4.7
2019-Jun-07 13:34N 60°29' E 001°26'0 5.1
2019-Jun-07 13:30N 60°30' E 001°27'3 5.6
2019-Jun-07 13:00N 60°30' E 001°32'3 5.5
2019-Jun-07 12:30N 60°31' E 001°37'3 5.5
2019-Jun-07 12:00N 60°32' E 001°43'2 4.8
2019-Jun-07 11:30N 60°33' E 001°47'3 5.0
2019-Jun-07 11:00N 60°33' E 001°52'2 4.4
2019-Jun-07 10:29N 60°34' E 001°57'2 4.9
2019-Jun-07 09:59N 60°34' E 002°02'3 5.4
2019-Jun-07 09:30N 60°35' E 002°07'3 6.1
2019-Jun-07 08:59N 60°36' E 002°13'3 6.5
2019-Jun-07 08:29N 60°36' E 002°20'4 7.1
2019-Jun-07 07:55N 60°37' E 002°28'3 7.0
2019-Jun-07 07:29N 60°37' E 002°34'8 6.4
2019-Jun-07 06:15N 60°38' E 002°50'2 6.5
2019-Jun-07 05:59N 60°38' E 002°53'3 6.3
2019-Jun-07 05:30N 60°38' E 002°60'3 5.5
2019-Jun-07 04:59N 60°38' E 003°05'2 4.7
2019-Jun-07 04:29N 60°38' E 003°10'2 4.4
2019-Jun-07 03:59N 60°38' E 003°15'2 3.5
2019-Jun-07 03:30N 60°38' E 003°18'1 2.4
2019-Jun-07 03:00N 60°38' E 003°21'1 2.5
2019-Jun-07 02:30N 60°38' E 003°23'1 2.2
2019-Jun-07 01:59N 60°38' E 003°25'1 2.4
2019-Jun-07 01:30N 60°38' E 003°28'1 2.8
2019-Jun-07 00:59N 60°38' E 003°31'1 3.0
2019-Jun-07 00:30N 60°38' E 003°34'1 2.8
2019-Jun-07 00:00N 60°38' E 003°37'1 2.6
2019-Jun-06 23:29N 60°38' E 003°39'1 1.8
2019-Jun-06 23:00N 60°38' E 003°41'1 1.6
2019-Jun-06 22:30N 60°38' E 003°43'1 2.4
2019-Jun-06 21:59N 60°37' E 003°45'1 2.9
2019-Jun-06 21:30N 60°37' E 003°48'3 5.2
2019-Jun-06 21:00N 60°38' E 003°53'3 5.6
2019-Jun-06 20:30N 60°39' E 003°58'3 5.4
2019-Jun-06 20:00N 60°40' E 004°03'3 6.1
2019-Jun-06 19:30N 60°41' E 004°09'3 6.1
2019-Jun-06 19:00N 60°42' E 004°15'3 5.9
2019-Jun-06 18:30N 60°43' E 004°21'3 6.5
2019-Jun-06 17:58N 60°44' E 004°28'3 6.7
2019-Jun-06 17:30N 60°44' E 004°34'4 7.0
2019-Jun-06 16:59N 60°45' E 004°41'3 6.6
2019-Jun-06 16:30N 60°44' E 004°47'4 8.0
2019-Jun-06 16:00N 60°40' E 004°51'4 7.6
2019-Jun-06 15:30N 60°36' E 004°54'3 6.6
2019-Jun-06 15:00N 60°33' E 004°56'3 5.9
2019-Jun-06 14:30N 60°31' E 004°58'3 6.0
2019-Jun-06 14:00N 60°28' E 005°01'3 6.1
2019-Jun-06 13:30N 60°25' E 005°04'4 7.8
2019-Jun-06 13:00N 60°23' E 005°11'4 7.1
2019-Jun-06 12:30N 60°24' E 005°17'1 1.8
2019-Jun-06 11:57N 60°24' E 005°19'0 0.0
2019-Jun-06 11:30N 60°24' E 005°19'0 0.0
2019-Jun-06 11:00N 60°24' E 005°19'0 0.0
2019-Jun-06 10:28N 60°24' E 005°19'0 0.0
2019-Jun-06 09:58N 60°24' E 005°19'0 0.0
2019-Jun-06 09:28N 60°24' E 005°19'0 0.0
2019-Jun-06 08:59N 60°24' E 005°19'0 0.0
2019-Jun-06 08:29N 60°24' E 005°19'0 0.0
2019-Jun-06 07:59N 60°24' E 005°19'0 0.0
2019-Jun-06 07:30N 60°24' E 005°19'0 0.0
2019-Jun-06 07:00N 60°24' E 005°19'0 0.0
2019-Jun-06 06:30N 60°24' E 005°19'0 0.0
2019-Jun-06 05:58N 60°24' E 005°19'0 0.0
2019-Jun-06 05:28N 60°24' E 005°19'0 0.0
2019-Jun-06 04:58N 60°24' E 005°19'0 0.0
2019-Jun-06 04:29N 60°24' E 005°19'0 0.0
2019-Jun-06 03:59N 60°24' E 005°19'0 0.0
2019-Jun-06 03:29N 60°24' E 005°19'0 0.0
2019-Jun-06 03:00N 60°24' E 005°19'0 0.0
2019-Jun-06 02:30N 60°24' E 005°19'0 0.0
2019-Jun-06 02:00N 60°24' E 005°19'0 0.0
2019-Jun-06 01:28N 60°24' E 005°19'0 0.0
2019-Jun-06 00:55N 60°24' E 005°19'  

Dump ship's entire track history